Aeropuerto Internacional Mariano Escobedo, México

6:07 AM CDT en Octubre 19, 2017 (GMT -0500)
Del Norte International | | Change Station

Alt 1470 ft 25.87 °N, 100.23 °W | Updated 22 minutes ago

Nublado
Nublado
59 ° F
Sensación térmica 59 ° F
N
4
Viento Variable Viento desde ONO

Hoy
Alta -- | Baja -- ° F
--% Posibilidad de precipitaciones
Ayer
Alta -- | Baja -- ° F
Precip. -- pul
Presión 30.09 pul
Visibilidad 3.0 Millas
Nubes Muy nublado 800 ft
Nublado 1000 ft
Punto de rocío 57 ° F
Humedad 94%
Precipitaciones 0.00 pul
Espesor de la nieve No disponible.
7:41 AM 7:09 PM
Creciente menguante, 0% visible
METAR MMAN 191045Z 30003KT 3SM BR BKN008 OVC010 15/14 A3009 RMK 8/5// RTS
Presión 30.09 pul
Visibilidad 3.0 Millas
Nubes Muy nublado 800 ft
Nublado 1000 ft
Punto de rocío 57 ° F
Humedad 94%
Precipitaciones 0.00 pul
Espesor de la nieve No disponible.
7:41 AM 7:09 PM
Creciente menguante, 0% visible
METAR MMAN 191045Z 30003KT 3SM BR BKN008 OVC010 15/14 A3009 RMK 8/5// RTS

Get Severe Weather Alerts

Thanks for signing up!

Be on the lookout for a verification email in your inbox.

You'll start receiving the daily forecast at 6 AM.

×

10-Day Weather Forecast

No radar image for this location.
×

Almanac

Astronomía

Oct. 19, 2017 Salida Puesta
Hora real
Crepúsculo civil
Crepúsculo náutico
Crepúsculo astronómico
Luna
Horas de luz
Horas de luz
Tomorrow will be .
, % of the Moon is Illuminated

Extremos de hoy

Máximos del país Bajas del país

Community

WunderPhotos

Category 6

Welcome to Category 6. This is the collective home for Weather Underground's featured writeups by Dr. Jeff Masters (right), Bob Henson (left), Chris Burt, and other regular contributors.

Nearby

Calidad del aire

  Calidad del aire Índice AQ Contaminante
Not available.

Grosos de nieve

Estación Profundido Altura

Actividad de terremotos

Ciudad Distance Mag. Tiempo y dato
Magnitud mínima muestra es 2,5.

Temperaturas de aguas costeras

Lugar Temperatura

Stations

Estaciones meteorológicas cercanas

Ubicación de la estación Temp. Vientos helados Punto de rocío Humedad Viento Precip. Alt Actualizado Tipo